sensor_id;sensor_type;location;lat;lon;timestamp;temperature;humidity
75010;DHT22;63564;46.840;18.336;2023-03-15T00:02:47;9.45;67.05
75010;DHT22;63564;46.840;18.336;2023-03-15T00:05:49;9.47;66.59
75010;DHT22;63564;46.840;18.336;2023-03-15T00:08:51;9.32;67.67
75010;DHT22;63564;46.840;18.336;2023-03-15T00:11:51;9.20;68.10
75010;DHT22;63564;46.840;18.336;2023-03-15T00:14:53;9.09;68.22
75010;DHT22;63564;46.840;18.336;2023-03-15T00:17:54;9.04;68.60
75010;DHT22;63564;46.840;18.336;2023-03-15T00:20:54;8.97;68.94
75010;DHT22;63564;46.840;18.336;2023-03-15T00:23:55;8.96;68.68
75010;DHT22;63564;46.840;18.336;2023-03-15T00:26:56;8.96;68.31
75010;DHT22;63564;46.840;18.336;2023-03-15T00:29:56;8.86;70.52
75010;DHT22;63564;46.840;18.336;2023-03-15T00:32:57;8.79;70.74
75010;DHT22;63564;46.840;18.336;2023-03-15T00:35:57;8.69;70.41
75010;DHT22;63564;46.840;18.336;2023-03-15T00:38:58;8.62;72.80
75010;DHT22;63564;46.840;18.336;2023-03-15T00:41:58;8.66;70.14
75010;DHT22;63564;46.840;18.336;2023-03-15T00:44:58;8.65;69.84
75010;DHT22;63564;46.840;18.336;2023-03-15T00:47:59;8.68;69.96
75010;DHT22;63564;46.840;18.336;2023-03-15T00:51:04;8.63;70.67
75010;DHT22;63564;46.840;18.336;2023-03-15T00:54:05;8.71;69.71
75010;DHT22;63564;46.840;18.336;2023-03-15T00:57:05;8.72;69.22
75010;DHT22;63564;46.840;18.336;2023-03-15T01:00:08;8.83;68.04
75010;DHT22;63564;46.840;18.336;2023-03-15T01:03:09;8.86;67.85
75010;DHT22;63564;46.840;18.336;2023-03-15T01:06:21;8.82;67.78
75010;DHT22;63564;46.840;18.336;2023-03-15T01:09:22;8.82;67.40
75010;DHT22;63564;46.840;18.336;2023-03-15T01:12:23;8.89;66.41
75010;DHT22;63564;46.840;18.336;2023-03-15T01:15:23;8.83;67.01
75010;DHT22;63564;46.840;18.336;2023-03-15T01:18:24;8.73;68.50
75010;DHT22;63564;46.840;18.336;2023-03-15T01:21:24;8.72;67.30
75010;DHT22;63564;46.840;18.336;2023-03-15T01:24:25;8.73;66.04
75010;DHT22;63564;46.840;18.336;2023-03-15T01:27:26;8.65;68.07
75010;DHT22;63564;46.840;18.336;2023-03-15T01:30:26;8.59;68.37
75010;DHT22;63564;46.840;18.336;2023-03-15T01:33:27;8.48;69.88
75010;DHT22;63564;46.840;18.336;2023-03-15T01:36:27;8.48;68.45
75010;DHT22;63564;46.840;18.336;2023-03-15T01:39:28;8.45;68.62
75010;DHT22;63564;46.840;18.336;2023-03-15T01:42:29;8.40;70.04
75010;DHT22;63564;46.840;18.336;2023-03-15T01:46:02;8.44;67.78
75010;DHT22;63564;46.840;18.336;2023-03-15T01:52:09;8.54;66.57
75010;DHT22;63564;46.840;18.336;2023-03-15T01:55:14;8.49;67.78
75010;DHT22;63564;46.840;18.336;2023-03-15T01:58:15;8.48;67.68
75010;DHT22;63564;46.840;18.336;2023-03-15T02:01:16;8.46;67.28
75010;DHT22;63564;46.840;18.336;2023-03-15T02:04:21;8.45;68.57
75010;DHT22;63564;46.840;18.336;2023-03-15T02:07:25;8.45;66.76
75010;DHT22;63564;46.840;18.336;2023-03-15T02:13:29;8.40;68.10
75010;DHT22;63564;46.840;18.336;2023-03-15T02:16:30;8.37;67.28
75010;DHT22;63564;46.840;18.336;2023-03-15T02:19:41;8.34;68.15
75010;DHT22;63564;46.840;18.336;2023-03-15T02:22:54;8.30;67.91
75010;DHT22;63564;46.840;18.336;2023-03-15T02:29:14;8.27;67.64
75010;DHT22;63564;46.840;18.336;2023-03-15T02:32:15;8.25;67.65
75010;DHT22;63564;46.840;18.336;2023-03-15T02:35:27;8.24;67.53
75010;DHT22;63564;46.840;18.336;2023-03-15T02:38:28;8.30;67.26
75010;DHT22;63564;46.840;18.336;2023-03-15T02:41:32;8.24;67.88
75010;DHT22;63564;46.840;18.336;2023-03-15T02:44:38;8.24;67.83
75010;DHT22;63564;46.840;18.336;2023-03-15T02:47:40;8.20;68.12
75010;DHT22;63564;46.840;18.336;2023-03-15T02:50:41;8.17;68.71
75010;DHT22;63564;46.840;18.336;2023-03-15T02:53:41;8.21;67.86
75010;DHT22;63564;46.840;18.336;2023-03-15T02:56:41;8.21;68.44
75010;DHT22;63564;46.840;18.336;2023-03-15T02:59:42;8.24;68.42
75010;DHT22;63564;46.840;18.336;2023-03-15T03:02:44;8.25;68.14
75010;DHT22;63564;46.840;18.336;2023-03-15T03:05:45;8.21;68.57
75010;DHT22;63564;46.840;18.336;2023-03-15T03:08:46;8.23;68.94
75010;DHT22;63564;46.840;18.336;2023-03-15T03:11:46;8.27;68.71
75010;DHT22;63564;46.840;18.336;2023-03-15T03:14:47;8.27;68.96
75010;DHT22;63564;46.840;18.336;2023-03-15T03:17:48;8.21;69.61
75010;DHT22;63564;46.840;18.336;2023-03-15T03:20:48;8.24;68.98
75010;DHT22;63564;46.840;18.336;2023-03-15T03:23:48;8.25;69.10
75010;DHT22;63564;46.840;18.336;2023-03-15T03:26:49;8.25;69.18
75010;DHT22;63564;46.840;18.336;2023-03-15T03:29:49;8.24;69.76
75010;DHT22;63564;46.840;18.336;2023-03-15T03:32:50;8.25;69.62
75010;DHT22;63564;46.840;18.336;2023-03-15T03:35:51;8.25;69.97
75010;DHT22;63564;46.840;18.336;2023-03-15T03:38:53;8.25;70.25
75010;DHT22;63564;46.840;18.336;2023-03-15T03:41:53;8.21;70.30
75010;DHT22;63564;46.840;18.336;2023-03-15T03:44:53;8.23;70.57
75010;DHT22;63564;46.840;18.336;2023-03-15T03:47:54;8.23;70.93
75010;DHT22;63564;46.840;18.336;2023-03-15T03:50:54;8.25;71.00
75010;DHT22;63564;46.840;18.336;2023-03-15T03:53:55;8.21;71.36
75010;DHT22;63564;46.840;18.336;2023-03-15T03:56:55;8.20;71.58
75010;DHT22;63564;46.840;18.336;2023-03-15T03:59:55;8.23;71.72
75010;DHT22;63564;46.840;18.336;2023-03-15T04:02:57;8.15;72.80
75010;DHT22;63564;46.840;18.336;2023-03-15T04:05:58;8.13;72.71
75010;DHT22;63564;46.840;18.336;2023-03-15T04:08:59;8.11;72.36
75010;DHT22;63564;46.840;18.336;2023-03-15T04:12:03;8.04;72.79
75010;DHT22;63564;46.840;18.336;2023-03-15T04:15:04;7.94;73.44
75010;DHT22;63564;46.840;18.336;2023-03-15T04:18:05;7.85;72.92
75010;DHT22;63564;46.840;18.336;2023-03-15T04:21:05;7.83;72.40
75010;DHT22;63564;46.840;18.336;2023-03-15T04:24:09;7.75;71.77
75010;DHT22;63564;46.840;18.336;2023-03-15T04:27:10;7.68;71.45
75010;DHT22;63564;46.840;18.336;2023-03-15T04:30:13;7.68;70.36
75010;DHT22;63564;46.840;18.336;2023-03-15T04:33:14;7.62;69.19
75010;DHT22;63564;46.840;18.336;2023-03-15T04:36:15;7.59;65.97
75010;DHT22;63564;46.840;18.336;2023-03-15T04:39:18;7.51;66.53
75010;DHT22;63564;46.840;18.336;2023-03-15T04:42:18;7.44;66.91
75010;DHT22;63564;46.840;18.336;2023-03-15T04:45:19;7.34;67.05
75010;DHT22;63564;46.840;18.336;2023-03-15T04:48:20;7.25;67.10
75010;DHT22;63564;46.840;18.336;2023-03-15T04:51:20;7.25;65.64
75010;DHT22;63564;46.840;18.336;2023-03-15T04:54:21;7.18;65.58
75010;DHT22;63564;46.840;18.336;2023-03-15T04:57:22;7.18;64.07
75010;DHT22;63564;46.840;18.336;2023-03-15T05:00:22;7.10;63.73
75010;DHT22;63564;46.840;18.336;2023-03-15T05:03:23;7.04;64.38
75010;DHT22;63564;46.840;18.336;2023-03-15T05:06:24;6.99;64.24
75010;DHT22;63564;46.840;18.336;2023-03-15T05:09:24;6.91;63.45
75010;DHT22;63564;46.840;18.336;2023-03-15T05:12:24;6.89;63.26
75010;DHT22;63564;46.840;18.336;2023-03-15T05:15:25;6.82;64.17
75010;DHT22;63564;46.840;18.336;2023-03-15T05:18:26;6.75;64.04
75010;DHT22;63564;46.840;18.336;2023-03-15T05:21:26;6.73;63.67
75010;DHT22;63564;46.840;18.336;2023-03-15T05:24:26;6.71;63.98
75010;DHT22;63564;46.840;18.336;2023-03-15T05:27:27;6.63;62.72
75010;DHT22;63564;46.840;18.336;2023-03-15T05:30:27;6.61;62.57
75010;DHT22;63564;46.840;18.336;2023-03-15T05:33:28;6.55;62.69
75010;DHT22;63564;46.840;18.336;2023-03-15T05:36:29;6.49;63.22
75010;DHT22;63564;46.840;18.336;2023-03-15T05:39:30;6.46;63.09
75010;DHT22;63564;46.840;18.336;2023-03-15T05:42:34;6.46;62.21
75010;DHT22;63564;46.840;18.336;2023-03-15T05:45:35;6.38;64.04
75010;DHT22;63564;46.840;18.336;2023-03-15T05:48:35;6.41;62.62
75010;DHT22;63564;46.840;18.336;2023-03-15T05:51:35;6.42;62.44
75010;DHT22;63564;46.840;18.336;2023-03-15T05:54:36;6.38;61.40
75010;DHT22;63564;46.840;18.336;2023-03-15T05:57:36;6.41;60.50
75010;DHT22;63564;46.840;18.336;2023-03-15T06:00:37;6.45;60.37
75010;DHT22;63564;46.840;18.336;2023-03-15T06:03:37;6.48;60.32
75010;DHT22;63564;46.840;18.336;2023-03-15T06:06:38;6.52;58.76
75010;DHT22;63564;46.840;18.336;2023-03-15T06:09:38;6.49;59.68
75010;DHT22;63564;46.840;18.336;2023-03-15T06:12:39;6.49;59.82
75010;DHT22;63564;46.840;18.336;2023-03-15T06:15:39;6.49;59.86
75010;DHT22;63564;46.840;18.336;2023-03-15T06:18:39;6.50;58.54
75010;DHT22;63564;46.840;18.336;2023-03-15T06:21:40;6.50;58.68
75010;DHT22;63564;46.840;18.336;2023-03-15T06:24:40;6.55;59.73
75010;DHT22;63564;46.840;18.336;2023-03-15T06:27:41;6.52;59.91
75010;DHT22;63564;46.840;18.336;2023-03-15T06:30:41;6.56;59.91
75010;DHT22;63564;46.840;18.336;2023-03-15T06:33:41;6.56;58.20
75010;DHT22;63564;46.840;18.336;2023-03-15T06:36:42;6.63;58.88
75010;DHT22;63564;46.840;18.336;2023-03-15T06:39:42;6.65;57.81
75010;DHT22;63564;46.840;18.336;2023-03-15T06:42:43;6.68;56.26
75010;DHT22;63564;46.840;18.336;2023-03-15T06:45:45;6.68;55.77
75010;DHT22;63564;46.840;18.336;2023-03-15T06:48:45;6.80;57.24
75010;DHT22;63564;46.840;18.336;2023-03-15T06:51:46;6.77;56.34
75010;DHT22;63564;46.840;18.336;2023-03-15T06:54:46;6.80;57.05
75010;DHT22;63564;46.840;18.336;2023-03-15T06:57:46;6.76;58.47
75010;DHT22;63564;46.840;18.336;2023-03-15T07:00:48;6.75;59.71
75010;DHT22;63564;46.840;18.336;2023-03-15T07:03:48;6.72;60.66
75010;DHT22;63564;46.840;18.336;2023-03-15T07:06:49;6.84;61.11
75010;DHT22;63564;46.840;18.336;2023-03-15T07:09:49;6.82;62.59
75010;DHT22;63564;46.840;18.336;2023-03-15T07:12:50;6.79;63.98
75010;DHT22;63564;46.840;18.336;2023-03-15T07:15:54;6.71;65.25
75010;DHT22;63564;46.840;18.336;2023-03-15T07:18:55;6.71;65.28
75010;DHT22;63564;46.840;18.336;2023-03-15T07:21:58;6.66;65.65
75010;DHT22;63564;46.840;18.336;2023-03-15T07:24:58;6.63;65.62
75010;DHT22;63564;46.840;18.336;2023-03-15T07:27:59;6.75;66.50
75010;DHT22;63564;46.840;18.336;2023-03-15T07:31:01;6.73;65.59
75010;DHT22;63564;46.840;18.336;2023-03-15T07:34:02;6.76;66.65
75010;DHT22;63564;46.840;18.336;2023-03-15T07:37:03;6.73;66.20
75010;DHT22;63564;46.840;18.336;2023-03-15T07:40:04;6.76;66.97
75010;DHT22;63564;46.840;18.336;2023-03-15T07:43:08;6.82;65.94
75010;DHT22;63564;46.840;18.336;2023-03-15T07:46:09;6.83;66.68
75010;DHT22;63564;46.840;18.336;2023-03-15T07:49:10;6.79;66.66
75010;DHT22;63564;46.840;18.336;2023-03-15T07:52:10;6.71;66.28
75010;DHT22;63564;46.840;18.336;2023-03-15T07:55:11;6.73;66.57
75010;DHT22;63564;46.840;18.336;2023-03-15T07:58:11;6.73;66.55
75010;DHT22;63564;46.840;18.336;2023-03-15T08:01:11;6.84;66.63
75010;DHT22;63564;46.840;18.336;2023-03-15T08:04:12;6.86;66.90
75010;DHT22;63564;46.840;18.336;2023-03-15T08:07:12;6.77;66.65
75010;DHT22;63564;46.840;18.336;2023-03-15T08:10:13;6.72;65.59
75010;DHT22;63564;46.840;18.336;2023-03-15T08:13:14;6.76;66.84
75010;DHT22;63564;46.840;18.336;2023-03-15T08:16:15;6.63;67.46
75010;DHT22;63564;46.840;18.336;2023-03-15T08:19:15;6.69;67.04
75010;DHT22;63564;46.840;18.336;2023-03-15T08:22:15;6.65;66.56
75010;DHT22;63564;46.840;18.336;2023-03-15T08:25:20;6.61;66.24
75010;DHT22;63564;46.840;18.336;2023-03-15T08:28:20;6.63;66.25
75010;DHT22;63564;46.840;18.336;2023-03-15T08:31:21;6.65;67.09
75010;DHT22;63564;46.840;18.336;2023-03-15T08:34:21;6.72;67.01
75010;DHT22;63564;46.840;18.336;2023-03-15T08:37:22;6.77;66.85
75010;DHT22;63564;46.840;18.336;2023-03-15T08:40:23;6.65;66.24
75010;DHT22;63564;46.840;18.336;2023-03-15T08:43:23;6.77;65.49
75010;DHT22;63564;46.840;18.336;2023-03-15T08:46:24;6.76;64.33
75010;DHT22;63564;46.840;18.336;2023-03-15T08:49:25;6.68;63.43
75010;DHT22;63564;46.840;18.336;2023-03-15T08:52:26;6.71;63.45
75010;DHT22;63564;46.840;18.336;2023-03-15T08:55:26;6.83;64.38
75010;DHT22;63564;46.840;18.336;2023-03-15T08:58:27;6.84;63.99
75010;DHT22;63564;46.840;18.336;2023-03-15T09:01:27;7.05;64.26
75010;DHT22;63564;46.840;18.336;2023-03-15T09:04:30;7.03;64.04
75010;DHT22;63564;46.840;18.336;2023-03-15T09:07:30;7.00;60.64
75010;DHT22;63564;46.840;18.336;2023-03-15T09:10:32;6.99;61.32
75010;DHT22;63564;46.840;18.336;2023-03-15T09:13:33;6.96;60.54
75010;DHT22;63564;46.840;18.336;2023-03-15T09:16:33;7.07;61.10
75010;DHT22;63564;46.840;18.336;2023-03-15T09:19:34;7.07;60.35
75010;DHT22;63564;46.840;18.336;2023-03-15T09:22:34;7.07;59.80
75010;DHT22;63564;46.840;18.336;2023-03-15T09:25:35;7.27;60.47
75010;DHT22;63564;46.840;18.336;2023-03-15T09:28:38;7.25;60.00
75010;DHT22;63564;46.840;18.336;2023-03-15T09:31:39;7.51;60.16
75010;DHT22;63564;46.840;18.336;2023-03-15T09:34:39;7.52;58.04
75010;DHT22;63564;46.840;18.336;2023-03-15T09:37:40;7.51;58.14
75010;DHT22;63564;46.840;18.336;2023-03-15T09:40:43;7.54;57.41
75010;DHT22;63564;46.840;18.336;2023-03-15T09:47:07;7.39;58.34
75010;DHT22;63564;46.840;18.336;2023-03-15T09:50:21;7.35;58.44
75010;DHT22;63564;46.840;18.336;2023-03-15T09:53:27;7.22;57.42
75010;DHT22;63564;46.840;18.336;2023-03-15T09:56:34;7.10;58.45
75010;DHT22;63564;46.840;18.336;2023-03-15T09:59:41;7.15;58.10
75010;DHT22;63564;46.840;18.336;2023-03-15T10:02:47;7.15;57.31
75010;DHT22;63564;46.840;18.336;2023-03-15T10:05:55;7.07;57.67
75010;DHT22;63564;46.840;18.336;2023-03-15T10:08:57;7.15;56.73
75010;DHT22;63564;46.840;18.336;2023-03-15T10:12:05;7.25;56.52
75010;DHT22;63564;46.840;18.336;2023-03-15T10:18:45;7.10;56.70
75010;DHT22;63564;46.840;18.336;2023-03-15T10:22:02;7.10;56.81
75010;DHT22;63564;46.840;18.336;2023-03-15T10:28:27;7.30;57.87
75010;DHT22;63564;46.840;18.336;2023-03-15T10:31:33;7.18;56.36
75010;DHT22;63564;46.840;18.336;2023-03-15T10:34:36;7.21;56.58
75010;DHT22;63564;46.840;18.336;2023-03-15T10:37:36;7.10;58.15
75010;DHT22;63564;46.840;18.336;2023-03-15T10:40:42;7.32;56.77
75010;DHT22;63564;46.840;18.336;2023-03-15T10:43:57;7.54;57.51
75010;DHT22;63564;46.840;18.336;2023-03-15T10:47:04;7.68;57.19
75010;DHT22;63564;46.840;18.336;2023-03-15T10:50:09;7.75;56.71
75010;DHT22;63564;46.840;18.336;2023-03-15T10:53:15;7.83;56.73
75010;DHT22;63564;46.840;18.336;2023-03-15T10:56:22;7.69;56.75
75010;DHT22;63564;46.840;18.336;2023-03-15T10:59:27;7.86;56.55
75010;DHT22;63564;46.840;18.336;2023-03-15T11:02:28;7.82;56.33
75010;DHT22;63564;46.840;18.336;2023-03-15T11:05:31;7.79;56.58
75010;DHT22;63564;46.840;18.336;2023-03-15T11:08:41;7.77;56.52
75010;DHT22;63564;46.840;18.336;2023-03-15T11:11:57;7.69;56.39
75010;DHT22;63564;46.840;18.336;2023-03-15T11:15:18;7.72;56.70
75010;DHT22;63564;46.840;18.336;2023-03-15T11:18:25;7.66;57.52
75010;DHT22;63564;46.840;18.336;2023-03-15T11:21:32;7.65;56.05
75010;DHT22;63564;46.840;18.336;2023-03-15T11:24:32;7.48;55.44
75010;DHT22;63564;46.840;18.336;2023-03-15T11:27:33;7.45;55.36
75010;DHT22;63564;46.840;18.336;2023-03-15T11:30:33;7.54;55.63
75010;DHT22;63564;46.840;18.336;2023-03-15T11:33:47;7.38;53.36
75010;DHT22;63564;46.840;18.336;2023-03-15T11:36:55;7.55;53.28
75010;DHT22;63564;46.840;18.336;2023-03-15T11:40:01;7.49;51.59
75010;DHT22;63564;46.840;18.336;2023-03-15T11:43:17;7.54;51.25
75010;DHT22;63564;46.840;18.336;2023-03-15T11:46:41;7.69;52.09
75010;DHT22;63564;46.840;18.336;2023-03-15T11:49:52;7.91;51.89
75010;DHT22;63564;46.840;18.336;2023-03-15T11:52:53;7.91;51.82
75010;DHT22;63564;46.840;18.336;2023-03-15T11:55:54;7.89;50.16
75010;DHT22;63564;46.840;18.336;2023-03-15T12:08:52;7.69;45.90
75010;DHT22;63564;46.840;18.336;2023-03-15T12:18:28;7.73;44.75
75010;DHT22;63564;46.840;18.336;2023-03-15T12:21:30;7.69;44.22
75010;DHT22;63564;46.840;18.336;2023-03-15T12:24:36;7.76;44.98
75010;DHT22;63564;46.840;18.336;2023-03-15T12:27:45;7.93;44.43
75010;DHT22;63564;46.840;18.336;2023-03-15T12:30:53;7.73;43.27
75010;DHT22;63564;46.840;18.336;2023-03-15T12:33:56;7.91;45.45
75010;DHT22;63564;46.840;18.336;2023-03-15T12:37:05;7.91;43.89
75010;DHT22;63564;46.840;18.336;2023-03-15T12:43:43;7.96;43.67
75010;DHT22;63564;46.840;18.336;2023-03-15T12:49:45;8.01;42.34
75010;DHT22;63564;46.840;18.336;2023-03-15T12:52:45;7.89;43.02
75010;DHT22;63564;46.840;18.336;2023-03-15T12:55:51;7.90;42.55
75010;DHT22;63564;46.840;18.336;2023-03-15T12:58:55;7.87;42.03
75010;DHT22;63564;46.840;18.336;2023-03-15T13:02:00;7.83;42.65
75010;DHT22;63564;46.840;18.336;2023-03-15T13:05:21;7.86;42.88
75010;DHT22;63564;46.840;18.336;2023-03-15T13:08:23;7.87;42.92
75010;DHT22;63564;46.840;18.336;2023-03-15T13:11:55;7.86;42.75
75010;DHT22;63564;46.840;18.336;2023-03-15T13:15:11;7.94;43.53
75010;DHT22;63564;46.840;18.336;2023-03-15T13:18:21;7.96;43.02
75010;DHT22;63564;46.840;18.336;2023-03-15T13:21:27;7.96;43.28
75010;DHT22;63564;46.840;18.336;2023-03-15T13:28:21;7.91;44.55
75010;DHT22;63564;46.840;18.336;2023-03-15T13:31:24;7.93;45.34
75010;DHT22;63564;46.840;18.336;2023-03-15T13:34:27;7.83;45.45
75010;DHT22;63564;46.840;18.336;2023-03-15T13:37:30;7.77;46.07
75010;DHT22;63564;46.840;18.336;2023-03-15T13:40:30;7.77;46.50
75010;DHT22;63564;46.840;18.336;2023-03-15T13:43:37;7.70;46.35
75010;DHT22;63564;46.840;18.336;2023-03-15T13:46:38;7.69;47.93
75010;DHT22;63564;46.840;18.336;2023-03-15T13:49:39;7.62;47.28
75010;DHT22;63564;46.840;18.336;2023-03-15T13:52:40;7.59;47.55
75010;DHT22;63564;46.840;18.336;2023-03-15T13:55:48;7.58;47.32
75010;DHT22;63564;46.840;18.336;2023-03-15T13:58:49;7.61;47.17
75010;DHT22;63564;46.840;18.336;2023-03-15T14:01:51;7.49;47.55
75010;DHT22;63564;46.840;18.336;2023-03-15T14:05:01;7.51;47.91
75010;DHT22;63564;46.840;18.336;2023-03-15T14:08:05;7.51;48.85
75010;DHT22;63564;46.840;18.336;2023-03-15T14:11:11;7.54;49.18
75010;DHT22;63564;46.840;18.336;2023-03-15T14:14:23;7.47;48.71
75010;DHT22;63564;46.840;18.336;2023-03-15T14:17:26;7.44;48.43
75010;DHT22;63564;46.840;18.336;2023-03-15T14:20:29;7.48;49.65
75010;DHT22;63564;46.840;18.336;2023-03-15T14:23:37;7.52;49.02
75010;DHT22;63564;46.840;18.336;2023-03-15T14:26:39;7.52;49.58
75010;DHT22;63564;46.840;18.336;2023-03-15T14:29:52;7.56;49.93
75010;DHT22;63564;46.840;18.336;2023-03-15T14:32:56;7.47;49.43
75010;DHT22;63564;46.840;18.336;2023-03-15T14:36:03;7.49;50.05
75010;DHT22;63564;46.840;18.336;2023-03-15T14:39:28;7.49;50.42
75010;DHT22;63564;46.840;18.336;2023-03-15T14:42:29;7.54;50.54
75010;DHT22;63564;46.840;18.336;2023-03-15T14:45:31;7.54;49.57
75010;DHT22;63564;46.840;18.336;2023-03-15T14:48:32;7.61;48.40
75010;DHT22;63564;46.840;18.336;2023-03-15T14:51:32;7.63;48.66
75010;DHT22;63564;46.840;18.336;2023-03-15T14:54:33;7.62;48.08
75010;DHT22;63564;46.840;18.336;2023-03-15T14:57:33;7.65;47.69
75010;DHT22;63564;46.840;18.336;2023-03-15T15:00:34;7.66;46.33
75010;DHT22;63564;46.840;18.336;2023-03-15T15:03:37;7.61;46.31
75010;DHT22;63564;46.840;18.336;2023-03-15T15:06:38;7.62;45.99
75010;DHT22;63564;46.840;18.336;2023-03-15T15:09:48;7.59;45.59
75010;DHT22;63564;46.840;18.336;2023-03-15T15:12:49;7.59;45.46
75010;DHT22;63564;46.840;18.336;2023-03-15T15:15:49;7.56;45.78
75010;DHT22;63564;46.840;18.336;2023-03-15T15:18:50;7.58;45.82
75010;DHT22;63564;46.840;18.336;2023-03-15T15:21:51;7.61;46.12
75010;DHT22;63564;46.840;18.336;2023-03-15T15:24:51;7.55;45.48
75010;DHT22;63564;46.840;18.336;2023-03-15T15:27:52;7.59;45.43
75010;DHT22;63564;46.840;18.336;2023-03-15T15:30:52;7.62;45.95
75010;DHT22;63564;46.840;18.336;2023-03-15T15:33:55;7.56;45.74
75010;DHT22;63564;46.840;18.336;2023-03-15T15:36:55;7.62;44.72
75010;DHT22;63564;46.840;18.336;2023-03-15T15:39:56;7.56;43.94
75010;DHT22;63564;46.840;18.336;2023-03-15T15:42:57;7.54;44.59
75010;DHT22;63564;46.840;18.336;2023-03-15T15:45:57;7.58;44.18
75010;DHT22;63564;46.840;18.336;2023-03-15T15:48:58;7.55;44.85
75010;DHT22;63564;46.840;18.336;2023-03-15T15:51:58;7.56;44.23
75010;DHT22;63564;46.840;18.336;2023-03-15T15:54:58;7.58;44.04
75010;DHT22;63564;46.840;18.336;2023-03-15T15:58:02;7.56;44.88
75010;DHT22;63564;46.840;18.336;2023-03-15T16:01:03;7.55;45.55
75010;DHT22;63564;46.840;18.336;2023-03-15T16:04:04;7.51;46.18
75010;DHT22;63564;46.840;18.336;2023-03-15T16:07:04;7.49;46.07
75010;DHT22;63564;46.840;18.336;2023-03-15T16:10:26;7.55;43.94
75010;DHT22;63564;46.840;18.336;2023-03-15T16:13:29;7.48;44.53
75010;DHT22;63564;46.840;18.336;2023-03-15T16:16:31;7.44;44.66
75010;DHT22;63564;46.840;18.336;2023-03-15T16:19:32;7.41;44.55
75010;DHT22;63564;46.840;18.336;2023-03-15T16:22:33;7.36;45.49
75010;DHT22;63564;46.840;18.336;2023-03-15T16:25:35;7.30;45.42
75010;DHT22;63564;46.840;18.336;2023-03-15T16:28:36;7.25;44.92
75010;DHT22;63564;46.840;18.336;2023-03-15T16:31:37;7.25;45.00
75010;DHT22;63564;46.840;18.336;2023-03-15T16:34:37;7.20;45.90
75010;DHT22;63564;46.840;18.336;2023-03-15T16:37:38;7.18;45.72
75010;DHT22;63564;46.840;18.336;2023-03-15T16:40:42;7.11;45.78
75010;DHT22;63564;46.840;18.336;2023-03-15T16:43:44;7.04;45.84
75010;DHT22;63564;46.840;18.336;2023-03-15T16:46:45;6.99;46.25
75010;DHT22;63564;46.840;18.336;2023-03-15T16:49:46;6.91;46.10
75010;DHT22;63564;46.840;18.336;2023-03-15T16:52:49;6.86;46.09
75010;DHT22;63564;46.840;18.336;2023-03-15T16:55:51;6.76;46.73
75010;DHT22;63564;46.840;18.336;2023-03-15T16:58:52;6.71;46.41
75010;DHT22;63564;46.840;18.336;2023-03-15T17:01:53;6.68;46.46
75010;DHT22;63564;46.840;18.336;2023-03-15T17:04:54;6.63;46.51
75010;DHT22;63564;46.840;18.336;2023-03-15T17:07:55;6.56;46.53
75010;DHT22;63564;46.840;18.336;2023-03-15T17:10:56;6.55;46.53
75010;DHT22;63564;46.840;18.336;2023-03-15T17:13:57;6.52;46.19
75010;DHT22;63564;46.840;18.336;2023-03-15T17:16:58;6.46;46.39
75010;DHT22;63564;46.840;18.336;2023-03-15T17:19:59;6.41;46.32
75010;DHT22;63564;46.840;18.336;2023-03-15T17:23:02;6.34;46.38
75010;DHT22;63564;46.840;18.336;2023-03-15T17:26:21;6.32;46.43
75010;DHT22;63564;46.840;18.336;2023-03-15T17:29:44;6.13;47.63
75010;DHT22;63564;46.840;18.336;2023-03-15T17:32:45;6.08;47.82
75010;DHT22;63564;46.840;18.336;2023-03-15T17:35:49;6.01;47.91
75010;DHT22;63564;46.840;18.336;2023-03-15T17:38:54;5.98;47.75
75010;DHT22;63564;46.840;18.336;2023-03-15T17:41:56;6.03;47.87
75010;DHT22;63564;46.840;18.336;2023-03-15T17:44:57;6.03;47.81
75010;DHT22;63564;46.840;18.336;2023-03-15T17:48:03;6.01;47.77
75010;DHT22;63564;46.840;18.336;2023-03-15T17:51:04;5.96;47.68
75010;DHT22;63564;46.840;18.336;2023-03-15T17:54:14;5.97;47.76
75010;DHT22;63564;46.840;18.336;2023-03-15T17:57:17;5.91;47.98
75010;DHT22;63564;46.840;18.336;2023-03-15T18:00:18;5.89;48.09
75010;DHT22;63564;46.840;18.336;2023-03-15T18:03:20;5.93;48.26
75010;DHT22;63564;46.840;18.336;2023-03-15T18:06:22;5.86;48.60
75010;DHT22;63564;46.840;18.336;2023-03-15T18:09:24;5.90;48.35
75010;DHT22;63564;46.840;18.336;2023-03-15T18:12:25;5.93;48.62
75010;DHT22;63564;46.840;18.336;2023-03-15T18:15:26;5.90;48.97
75010;DHT22;63564;46.840;18.336;2023-03-15T18:18:27;5.86;49.34
75010;DHT22;63564;46.840;18.336;2023-03-15T18:21:28;5.79;49.87
75010;DHT22;63564;46.840;18.336;2023-03-15T18:24:29;5.77;50.24
75010;DHT22;63564;46.840;18.336;2023-03-15T18:27:31;5.74;50.65
75010;DHT22;63564;46.840;18.336;2023-03-15T18:30:34;5.69;50.73
75010;DHT22;63564;46.840;18.336;2023-03-15T18:33:35;5.70;50.94
75010;DHT22;63564;46.840;18.336;2023-03-15T18:36:35;5.69;51.04
75010;DHT22;63564;46.840;18.336;2023-03-15T18:39:36;5.63;51.34
75010;DHT22;63564;46.840;18.336;2023-03-15T18:42:39;5.66;51.22
75010;DHT22;63564;46.840;18.336;2023-03-15T18:45:40;5.59;51.45
75010;DHT22;63564;46.840;18.336;2023-03-15T18:48:41;5.60;51.29
75010;DHT22;63564;46.840;18.336;2023-03-15T18:51:44;5.65;51.00
75010;DHT22;63564;46.840;18.336;2023-03-15T18:54:45;5.60;51.27
75010;DHT22;63564;46.840;18.336;2023-03-15T18:57:47;5.58;51.37
75010;DHT22;63564;46.840;18.336;2023-03-15T19:00:49;5.48;52.21
75010;DHT22;63564;46.840;18.336;2023-03-15T19:03:51;5.52;51.96
75010;DHT22;63564;46.840;18.336;2023-03-15T19:06:52;5.45;52.02
75010;DHT22;63564;46.840;18.336;2023-03-15T19:09:53;5.39;52.44
75010;DHT22;63564;46.840;18.336;2023-03-15T19:12:54;5.32;52.64
75010;DHT22;63564;46.840;18.336;2023-03-15T19:15:55;5.31;53.00
75010;DHT22;63564;46.840;18.336;2023-03-15T19:18:56;5.25;53.42
75010;DHT22;63564;46.840;18.336;2023-03-15T19:21:57;5.22;53.28
75010;DHT22;63564;46.840;18.336;2023-03-15T19:24:58;5.21;53.76
75010;DHT22;63564;46.840;18.336;2023-03-15T19:28:02;5.22;53.23
75010;DHT22;63564;46.840;18.336;2023-03-15T19:31:04;5.22;53.10
75010;DHT22;63564;46.840;18.336;2023-03-15T19:34:05;5.18;53.28
75010;DHT22;63564;46.840;18.336;2023-03-15T19:37:07;5.18;53.05
75010;DHT22;63564;46.840;18.336;2023-03-15T19:40:10;5.22;52.62
75010;DHT22;63564;46.840;18.336;2023-03-15T19:43:12;5.24;52.22
75010;DHT22;63564;46.840;18.336;2023-03-15T19:46:14;5.21;52.94
75010;DHT22;63564;46.840;18.336;2023-03-15T19:49:16;5.25;52.17
75010;DHT22;63564;46.840;18.336;2023-03-15T19:52:17;5.22;52.60
75010;DHT22;63564;46.840;18.336;2023-03-15T19:55:19;5.18;52.38
75010;DHT22;63564;46.840;18.336;2023-03-15T19:58:23;5.22;52.20
75010;DHT22;63564;46.840;18.336;2023-03-15T20:01:24;5.14;52.78